KCDC/CDC METAR and TAF weather

Enter ICAO airport designator
Station Type Date Time Source
KCDC METAR 2018/01/24 06:53 UTC NOAA

KCDC 240653Z AUTO 00000KT 10SM CLR M09/M11 A3031 RMK AO2 SLP304 I1000 T10891106 400331156


Station Type Date Time Source
KCDC Decoded METAR 2018/01/24 06:53 UTC NOAA

CEDAR CITY MUN AIRPORT, UT, United States (KCDC) 37-42N 113-06W 1714M
Jan 24, 2018 - 01:53 AM EST / 2018.01.24 0653 UTC
Wind: Calm:0
Visibility: 10 mile(s):0
Sky conditions: clear
Temperature: 16.0 F (-8.9 C)
Dew Point: 12.9 F (-10.6 C)
Relative Humidity: 87%
Pressure (altimeter): 30.31 in. Hg (1026 hPa)
ob: KCDC 240653Z AUTO 00000KT 10SM CLR M09/M11 A3031 RMK AO2 SLP304 I1000 T10891106 400331156
cycle: 7

Station Type Date Time Source
KCDC TAF 2018/01/24 06:39 UTC NOAA

TAF KCDC 240535Z 2406/2506 VRB04KT P6SM SCT200
FM241500 18007KT P6SM SCT200
FM242100 21010G18KT P6SM FEW150 SCT200
FM250300 18011KT P6SM FEW150 SCT200


Example: see airport list